Time;durP1;ratioP1;P1;durP2;ratioP2;P2;SDS_P1;SDS_P2;PMS_P1;PMS_P2;Temp;Humidity;BMP_temperature;BMP_pressure;BME280_temperature;BME280_humidity;BME280_pressure;Samples;Min_cycle;Max_cycle;Signal;HPM_P1;HPM_P2
2021/09/06 00:00:07;;;;;;;19.38;13.82;;;20.60;67.00;;;;;;5037903;28;20029;-73
2021/09/06 00:02:33;;;;;;;24.85;14.57;;;20.50;70.00;;;;;;5037265;28;20025;-73
2021/09/06 00:04:59;;;;;;;20.88;14.88;;;20.50;68.70;;;;;;5037954;28;20033;-73
2021/09/06 00:07:26;;;;;;;23.95;14.63;;;20.50;69.50;;;;;;5037841;28;20743;-73
2021/09/06 00:10:17;;;;;;;22.50;13.55;;;20.40;70.10;;;;;;5037796;28;20033;-73
2021/09/06 00:12:42;;;;;;;26.90;15.07;;;20.40;69.30;;;;;;5036550;28;20106;-73
2021/09/06 00:15:09;;;;;;;20.63;13.73;;;20.40;68.90;;;;;;5037638;28;20030;-73
2021/09/06 00:17:34;;;;;;;20.15;13.70;;;20.30;67.60;;;;;;5036599;28;20101;-73
2021/09/06 00:20:00;;;;;;;23.48;14.65;;;20.30;68.10;;;;;;5037696;28;20056;-73
2021/09/06 00:22:26;;;;;;;21.55;14.55;;;20.30;69.10;;;;;;5036252;28;20476;-73
2021/09/06 00:24:52;;;;;;;24.67;15.15;;;20.30;69.50;;;;;;5036096;28;20510;-73
2021/09/06 00:27:18;;;;;;;23.27;15.02;;;20.20;70.90;;;;;;5037716;28;20018;-73
2021/09/06 00:29:43;;;;;;;23.92;14.80;;;20.20;69.40;;;;;;5036234;28;20021;-73
2021/09/06 00:32:09;;;;;;;24.30;15.25;;;20.20;71.20;;;;;;5037432;28;20435;-73
2021/09/06 00:34:36;;;;;;;24.73;14.25;;;20.10;73.40;;;;;;5037569;28;20030;-73
2021/09/06 00:37:02;;;;;;;24.13;14.50;;;20.00;72.50;;;;;;5037575;28;20099;-73
2021/09/06 00:39:28;;;;;;;22.65;15.23;;;20.00;70.70;;;;;;5035999;28;20059;-73
2021/09/06 00:41:53;;;;;;;24.20;14.93;;;19.90;70.90;;;;;;5037547;28;20022;-73
2021/09/06 00:44:20;;;;;;;28.25;17.20;;;19.90;71.90;;;;;;5037399;28;20040;-73
2021/09/06 00:46:47;;;;;;;27.23;17.08;;;19.90;72.60;;;;;;5037518;28;20025;-73
2021/09/06 00:49:16;;;;;;;30.15;16.95;;;19.90;73.50;;;;;;5037359;28;20044;-73
2021/09/06 00:51:42;;;;;;;27.27;16.63;;;19.80;73.90;;;;;;5037232;28;20022;-73
2021/09/06 00:54:08;;;;;;;25.90;16.77;;;19.80;72.30;;;;;;5037035;28;20084;-73
2021/09/06 00:56:35;;;;;;;29.55;17.60;;;19.70;72.20;;;;;;5037378;28;20530;-73
2021/09/06 00:59:01;;;;;;;26.25;14.63;;;19.70;73.70;;;;;;5037459;28;20025;-73
2021/09/06 01:01:27;;;;;;;28.67;16.90;;;19.70;71.50;;;;;;5037317;28;20018;-73
2021/09/06 01:03:52;;;;;;;25.05;15.88;;;19.70;72.00;;;;;;5037293;28;20037;-73
2021/09/06 01:06:18;;;;;;;26.05;17.55;;;19.60;72.20;;;;;;5035784;28;20021;-73
2021/09/06 01:08:44;;;;;;;26.00;17.50;;;19.60;73.70;;;;;;5037150;28;20057;-73
2021/09/06 01:11:10;;;;;;;27.33;16.50;;;19.60;74.70;;;;;;5037296;28;20391;-73
2021/09/06 01:13:36;;;;;;;28.25;18.48;;;19.60;71.80;;;;;;5040154;28;20030;-73
2021/09/06 01:16:01;;;;;;;26.17;16.20;;;19.50;74.00;;;;;;5041167;28;20021;-73
2021/09/06 01:18:28;;;;;;;27.55;17.27;;;19.60;71.20;;;;;;5041027;28;20100;-73
2021/09/06 01:20:54;;;;;;;27.20;16.95;;;19.50;73.30;;;;;;5040863;28;20475;-73
2021/09/06 01:23:19;;;;;;;29.70;18.15;;;19.50;74.00;;;;;;5039582;28;20048;-73
2021/09/06 01:25:49;;;;;;;26.92;17.45;;;19.50;73.20;;;;;;5040783;28;20029;-73
2021/09/06 01:28:15;;;;;;;27.48;17.38;;;19.40;74.10;;;;;;5040879;28;20476;-72
2021/09/06 01:30:41;;;;;;;27.92;17.00;;;19.40;72.10;;;;;;5041017;28;20028;-73
2021/09/06 01:33:07;;;;;;;24.95;16.52;;;19.40;71.80;;;;;;5040482;28;20080;-72
2021/09/06 01:35:32;;;;;;;30.52;18.05;;;19.40;73.30;;;;;;5040523;28;20045;-73
2021/09/06 01:37:58;;;;;;;28.42;18.20;;;19.30;74.90;;;;;;5039343;28;20031;-73
2021/09/06 01:40:25;;;;;;;29.08;17.17;;;19.30;74.90;;;;;;5040674;28;20022;-73
2021/09/06 01:42:52;;;;;;;28.23;18.77;;;19.30;73.10;;;;;;5040491;28;20022;-73
2021/09/06 01:45:18;;;;;;;27.58;17.33;;;19.30;72.80;;;;;;5040699;28;20018;-73
2021/09/06 01:47:44;;;;;;;30.48;18.35;;;19.20;71.90;;;;;;5040472;28;20025;-73
2021/09/06 01:50:10;;;;;;;31.15;19.45;;;19.20;72.80;;;;;;5040439;28;20029;-73
2021/09/06 01:52:37;;;;;;;30.52;18.45;;;19.20;74.00;;;;;;5040496;28;20036;-73
2021/09/06 01:55:04;;;;;;;28.85;17.27;;;19.20;73.50;;;;;;5040475;28;20025;-72
2021/09/06 01:57:30;;;;;;;27.85;17.23;;;19.20;72.10;;;;;;5040282;28;20025;-73
2021/09/06 01:59:56;;;;;;;30.23;18.50;;;19.20;72.70;;;;;;5040421;28;20018;-73
2021/09/06 02:02:22;;;;;;;30.55;17.95;;;19.10;72.90;;;;;;5038796;28;20080;-73
2021/09/06 02:04:48;;;;;;;32.30;20.33;;;19.10;74.10;;;;;;5040539;28;20103;-73
2021/09/06 02:07:14;;;;;;;29.20;18.48;;;19.10;74.10;;;;;;5039852;28;20031;-73
2021/09/06 02:09:40;;;;;;;30.95;18.98;;;19.00;73.30;;;;;;5040486;28;20034;-73
2021/09/06 02:12:07;;;;;;;32.88;21.20;;;19.00;74.40;;;;;;5038606;28;20103;-73
2021/09/06 02:14:33;;;;;;;30.70;17.92;;;19.00;76.40;;;;;;5040255;28;20072;-73
2021/09/06 02:16:59;;;;;;;28.48;17.35;;;18.90;72.60;;;;;;5039894;28;20030;-73
2021/09/06 02:19:25;;;;;;;29.80;16.88;;;18.90;71.60;;;;;;5040552;28;20018;-73
2021/09/06 02:21:50;;;;;;;30.00;17.40;;;18.90;71.90;;;;;;5039605;28;20472;-73
2021/09/06 02:24:17;;;;;;;33.67;19.40;;;18.90;73.10;;;;;;5038999;28;20086;-73
2021/09/06 02:26:43;;;;;;;30.70;18.52;;;18.80;75.70;;;;;;5039726;28;20082;-73
2021/09/06 02:29:10;;;;;;;28.58;16.95;;;18.80;73.30;;;;;;5039803;28;20024;-73
2021/09/06 02:31:37;;;;;;;33.75;17.92;;;18.80;70.80;;;;;;5038393;28;20120;-73
2021/09/06 02:34:03;;;;;;;32.17;20.10;;;18.80;72.50;;;;;;5037986;28;20049;-73
2021/09/06 02:36:29;;;;;;;27.95;17.08;;;18.80;76.00;;;;;;5039360;28;20032;-73
2021/09/06 02:38:55;;;;;;;32.08;18.85;;;18.80;72.80;;;;;;5038230;28;20021;-73
2021/09/06 02:41:21;;;;;;;32.47;19.75;;;18.70;74.80;;;;;;5039545;28;20025;-73
2021/09/06 02:43:47;;;;;;;31.80;18.02;;;18.70;75.50;;;;;;5039506;28;20029;-73
2021/09/06 02:46:13;;;;;;;27.70;17.83;;;18.70;73.40;;;;;;5039679;28;20392;-73
2021/09/06 02:48:38;;;;;;;31.20;18.20;;;18.70;74.70;;;;;;5039676;28;20113;-73
2021/09/06 02:51:04;;;;;;;30.70;18.27;;;18.70;73.50;;;;;;5039247;28;20029;-73
2021/09/06 02:53:30;;;;;;;29.45;17.70;;;18.60;73.70;;;;;;5039114;28;20093;-73
2021/09/06 02:55:56;;;;;;;26.95;16.75;;;18.60;73.10;;;;;;5039210;28;20032;-73
2021/09/06 02:58:22;;;;;;;26.55;16.45;;;18.60;72.00;;;;;;5039241;28;20109;-73
2021/09/06 03:00:48;;;;;;;27.17;15.35;;;18.60;72.30;;;;;;5039141;28;20077;-73
2021/09/06 03:03:13;;;;;;;25.10;15.93;;;18.60;70.50;;;;;;5039034;28;20025;-73
2021/09/06 03:05:39;;;;;;;28.50;16.88;;;18.50;70.50;;;;;;5038839;28;20022;-73
2021/09/06 03:08:05;;;;;;;31.30;16.70;;;18.60;71.20;;;;;;5039174;28;20021;-73
2021/09/06 03:10:31;;;;;;;29.25;17.10;;;18.60;73.20;;;;;;5038832;28;20026;-73
2021/09/06 03:12:57;;;;;;;28.77;18.02;;;18.50;73.40;;;;;;5039043;28;20063;-73
2021/09/06 03:15:23;;;;;;;29.88;19.13;;;18.50;73.00;;;;;;5037423;28;20037;-73
2021/09/06 03:17:49;;;;;;;26.30;16.13;;;18.40;74.20;;;;;;5037633;28;20021;-73
2021/09/06 03:20:15;;;;;;;30.20;17.60;;;18.40;71.30;;;;;;5038513;28;20499;-73
2021/09/06 03:22:41;;;;;;;31.35;17.65;;;18.40;73.20;;;;;;5038845;28;20044;-73
2021/09/06 03:25:07;;;;;;;30.90;18.33;;;18.40;72.80;;;;;;5038531;28;20433;-73
2021/09/06 03:27:33;;;;;;;33.03;18.20;;;18.30;74.20;;;;;;5038783;28;20052;-73
2021/09/06 03:29:59;;;;;;;31.50;17.65;;;18.30;71.50;;;;;;5038539;28;20476;-73
2021/09/06 03:32:25;;;;;;;32.78;20.63;;;18.30;74.20;;;;;;5038411;28;20041;-73
2021/09/06 03:34:51;;;;;;;30.50;18.20;;;18.30;75.30;;;;;;5038258;28;20087;-73
2021/09/06 03:37:16;;;;;;;32.13;19.58;;;18.20;75.10;;;;;;5038421;28;20028;-73
2021/09/06 03:39:42;;;;;;;36.00;19.52;;;18.20;75.80;;;;;;5038259;28;20096;-73
2021/09/06 03:42:09;;;;;;;32.47;18.95;;;18.10;76.40;;;;;;5038508;28;20025;-73
2021/09/06 03:44:35;;;;;;;30.55;17.33;;;18.10;74.40;;;;;;5038357;28;20036;-73
2021/09/06 03:47:01;;;;;;;27.02;16.85;;;18.10;72.90;;;;;;5038430;28;20017;-73
2021/09/06 03:49:26;;;;;;;28.95;16.65;;;18.10;74.10;;;;;;5038156;28;20079;-73
2021/09/06 03:51:52;;;;;;;29.55;17.02;;;18.10;74.00;;;;;;5037957;28;20025;-73
2021/09/06 03:54:18;;;;;;;31.23;19.08;;;18.10;75.50;;;;;;5037910;28;20030;-73
2021/09/06 03:56:43;;;;;;;26.30;14.95;;;18.00;73.50;;;;;;5036902;28;20030;-73
2021/09/06 03:59:09;;;;;;;27.70;16.35;;;18.00;72.00;;;;;;5036876;28;20533;-73
2021/09/06 04:01:35;;;;;;;28.13;16.67;;;17.90;72.20;;;;;;5038075;28;20380;-73
2021/09/06 04:04:01;;;;;;;36.35;20.08;;;17.90;74.80;;;;;;5037887;28;20057;-73
2021/09/06 04:06:27;;;;;;;31.23;17.25;;;17.90;76.80;;;;;;5036498;28;20036;-73
2021/09/06 04:08:52;;;;;;;29.33;16.70;;;17.90;75.00;;;;;;5037758;28;20026;-73
2021/09/06 04:11:18;;;;;;;28.17;16.30;;;17.90;74.30;;;;;;5037917;28;20049;-73
2021/09/06 04:13:44;;;;;;;33.58;17.90;;;17.90;75.00;;;;;;5037768;28;20026;-73
2021/09/06 04:16:11;;;;;;;30.45;17.27;;;17.80;74.50;;;;;;5037935;28;20060;-73
2021/09/06 04:18:36;;;;;;;31.67;18.13;;;17.80;75.40;;;;;;5037736;28;20096;-73
2021/09/06 04:21:02;;;;;;;30.17;17.35;;;17.80;74.10;;;;;;5036271;28;20048;-73
2021/09/06 04:23:28;;;;;;;30.02;18.67;;;17.80;74.40;;;;;;5037549;28;20090;-73
2021/09/06 04:25:54;;;;;;;29.27;18.23;;;17.70;76.50;;;;;;5037677;28;20024;-73
2021/09/06 04:28:20;;;;;;;28.75;17.80;;;17.70;77.30;;;;;;5037593;28;20025;-73
2021/09/06 04:30:45;;;;;;;24.88;15.88;;;17.70;75.30;;;;;;5036335;28;20022;-73
2021/09/06 04:33:11;;;;;;;27.00;16.08;;;17.70;75.00;;;;;;5037199;28;20072;-73
2021/09/06 04:35:37;;;;;;;28.33;17.17;;;17.60;74.00;;;;;;5035980;28;20025;-73
2021/09/06 04:38:03;;;;;;;24.50;15.30;;;17.60;75.00;;;;;;5037417;28;20087;-73
2021/09/06 04:40:28;;;;;;;28.88;15.45;;;17.60;74.90;;;;;;5037763;28;20053;-73
2021/09/06 04:42:54;;;;;;;21.13;14.02;;;17.60;73.60;;;;;;5037450;28;20084;-73
2021/09/06 04:45:20;;;;;;;23.10;14.10;;;17.60;74.00;;;;;;5037613;28;20022;-73
2021/09/06 04:47:46;;;;;;;25.30;13.05;;;17.50;73.70;;;;;;5036832;28;20028;-73
2021/09/06 04:50:12;;;;;;;24.08;13.25;;;17.50;72.60;;;;;;5037357;28;20499;-73
2021/09/06 04:52:38;;;;;;;24.95;13.95;;;17.50;72.50;;;;;;5037279;28;20029;-73
2021/09/06 04:55:04;;;;;;;21.35;13.20;;;17.50;71.50;;;;;;5035902;28;20022;-73
2021/09/06 04:57:30;;;;;;;24.33;15.15;;;17.50;74.70;;;;;;5037466;28;20535;-73
2021/09/06 04:59:55;;;;;;;27.60;15.10;;;17.40;75.10;;;;;;5037349;28;20045;-73
2021/09/06 05:02:21;;;;;;;23.05;14.63;;;17.40;74.40;;;;;;5037122;28;20076;-73
2021/09/06 05:04:47;;;;;;;23.30;15.52;;;17.40;75.20;;;;;;5037505;28;20431;-73
2021/09/06 05:07:13;;;;;;;22.95;14.88;;;17.40;76.60;;;;;;5037197;28;20394;-73
2021/09/06 05:09:39;;;;;;;24.58;15.98;;;17.30;74.20;;;;;;5037253;28;20025;-73
2021/09/06 05:12:05;;;;;;;22.83;14.40;;;17.30;77.50;;;;;;5037065;28;20030;-73
2021/09/06 05:14:31;;;;;;;25.25;14.57;;;17.20;75.30;;;;;;5037280;28;20100;-73
2021/09/06 05:16:57;;;;;;;23.95;15.77;;;17.30;77.00;;;;;;5037097;28;20060;-73
2021/09/06 05:19:23;;;;;;;22.05;14.18;;;17.20;78.40;;;;;;5037326;28;20010;-73
2021/09/06 05:21:48;;;;;;;24.02;14.95;;;17.10;76.90;;;;;;5036844;28;20026;-73
2021/09/06 05:24:14;;;;;;;19.83;12.68;;;17.10;76.40;;;;;;5037142;28;20033;-73
2021/09/06 05:26:40;;;;;;;19.42;12.32;;;17.10;73.90;;;;;;5036892;28;20087;-73
2021/09/06 05:29:06;;;;;;;19.63;12.82;;;17.10;74.40;;;;;;5037190;28;20388;-73
2021/09/06 05:31:31;;;;;;;21.85;13.52;;;17.10;74.70;;;;;;5036988;28;20037;-73
2021/09/06 05:33:57;;;;;;;19.77;11.93;;;17.10;73.00;;;;;;5036677;28;20045;-73
2021/09/06 05:36:23;;;;;;;20.55;13.55;;;17.10;74.00;;;;;;5037098;28;20108;-73
2021/09/06 05:38:49;;;;;;;21.77;12.63;;;17.10;74.80;;;;;;5037032;28;20092;-73
2021/09/06 05:41:15;;;;;;;18.45;12.30;;;17.00;74.10;;;;;;5036914;28;20096;-72
2021/09/06 05:43:41;;;;;;;16.23;11.00;;;17.00;72.30;;;;;;5037118;28;20025;-78
2021/09/06 05:46:07;;;;;;;16.10;10.70;;;17.00;71.70;;;;;;5035923;28;20025;-73
2021/09/06 05:48:33;;;;;;;16.95;9.73;;;17.00;70.70;;;;;;5037125;28;20033;-72
2021/09/06 05:50:58;;;;;;;20.48;11.40;;;17.00;70.30;;;;;;5036600;28;20034;-73
2021/09/06 05:53:24;;;;;;;20.27;12.75;;;17.00;71.90;;;;;;5036923;28;20026;-73
2021/09/06 05:55:50;;;;;;;18.95;11.95;;;17.00;72.70;;;;;;5036818;28;20057;-74
2021/09/06 05:58:16;;;;;;;19.35;12.35;;;17.00;72.20;;;;;;5036404;28;20021;-75
2021/09/06 06:00:41;;;;;;;16.58;11.52;;;17.00;72.80;;;;;;5037957;28;20450;-76
2021/09/06 06:03:07;;;;;;;18.05;11.80;;;17.00;71.20;;;;;;5040355;28;20420;-77
2021/09/06 06:05:33;;;;;;;21.83;13.75;;;17.00;71.80;;;;;;5040007;28;20037;-78
2021/09/06 06:07:59;;;;;;;20.40;13.88;;;17.00;75.70;;;;;;5040594;28;20022;-79
2021/09/06 06:10:25;;;;;;;22.13;13.52;;;17.00;75.00;;;;;;5038771;28;20041;-78
2021/09/06 06:12:51;;;;;;;21.02;14.35;;;17.00;76.10;;;;;;5040045;28;20026;-79
2021/09/06 06:15:17;;;;;;;22.63;14.35;;;17.00;77.30;;;;;;5038805;28;20399;-77
2021/09/06 06:17:43;;;;;;;23.05;15.18;;;17.00;77.10;;;;;;5040170;28;20096;-68
2021/09/06 06:20:10;;;;;;;24.63;14.93;;;17.00;76.90;;;;;;5039874;28;20053;-71
2021/09/06 06:22:36;;;;;;;20.40;13.50;;;17.00;77.00;;;;;;5039833;28;20040;-72
2021/09/06 06:25:02;;;;;;;20.35;13.70;;;17.00;77.30;;;;;;5039866;28;20049;-71
2021/09/06 06:27:28;;;;;;;21.42;13.70;;;16.90;78.30;;;;;;5039837;28;20025;-71
2021/09/06 06:29:54;;;;;;;20.85;13.23;;;16.90;78.30;;;;;;5039701;28;20085;-71
2021/09/06 06:32:20;;;;;;;19.95;13.30;;;16.90;75.70;;;;;;5038126;28;20459;-74
2021/09/06 06:34:46;;;;;;;21.85;13.13;;;16.90;76.70;;;;;;5039520;28;20033;-71
2021/09/06 06:37:11;;;;;;;21.42;12.50;;;16.90;76.80;;;;;;5039139;28;20033;-72
2021/09/06 06:39:38;;;;;;;16.83;11.05;;;17.00;74.80;;;;;;5039121;28;20107;-72
2021/09/06 06:42:04;;;;;;;19.25;11.75;;;17.00;73.70;;;;;;5039213;28;20021;-72
2021/09/06 06:44:30;;;;;;;17.88;10.60;;;17.00;73.10;;;;;;5039225;28;20021;-72
2021/09/06 06:46:56;;;;;;;19.23;11.98;;;17.00;75.00;;;;;;5039045;28;20067;-71
2021/09/06 06:49:22;;;;;;;19.08;12.77;;;17.10;74.90;;;;;;5038944;28;20399;-72
2021/09/06 06:51:48;;;;;;;19.30;12.60;;;17.10;76.00;;;;;;5038802;28;20030;-72
2021/09/06 06:54:13;;;;;;;38.53;21.63;;;17.20;77.70;;;;;;5038468;28;20093;-73
2021/09/06 06:56:39;;;;;;;26.38;17.38;;;17.20;78.80;;;;;;5039371;28;20021;-72
2021/09/06 06:59:05;;;;;;;21.67;14.38;;;17.20;80.10;;;;;;5039083;28;20021;-72
2021/09/06 07:01:31;;;;;;;22.85;14.02;;;17.20;79.10;;;;;;5039203;28;20032;-73
2021/09/06 07:03:57;;;;;;;23.80;15.50;;;17.30;78.80;;;;;;5038992;28;20033;-73
2021/09/06 07:06:24;;;;;;;24.58;15.35;;;17.30;81.20;;;;;;5038366;28;20028;-71
2021/09/06 07:08:49;;;;;;;47.50;32.42;;;17.30;79.70;;;;;;5038937;28;20026;-72
2021/09/06 07:11:15;;;;;;;30.42;20.52;;;17.40;81.00;;;;;;5037323;28;20369;-73
2021/09/06 07:13:41;;;;;;;26.27;16.48;;;17.40;79.50;;;;;;5036860;28;20029;-72
2021/09/06 07:16:07;;;;;;;19.55;12.95;;;17.40;80.00;;;;;;5037574;28;20018;-73
2021/09/06 07:18:33;;;;;;;18.98;12.50;;;17.40;77.20;;;;;;5038456;28;20021;-73
2021/09/06 07:20:59;;;;;;;19.58;12.63;;;17.50;78.30;;;;;;5038358;28;20484;-73
2021/09/06 07:23:25;;;;;;;15.68;10.23;;;17.50;76.40;;;;;;5038955;28;20387;-73
2021/09/06 07:25:54;;;;;;;15.85;9.88;;;17.60;74.80;;;;;;5038286;28;20026;-73
2021/09/06 07:28:20;;;;;;;15.48;9.60;;;17.70;75.20;;;;;;5038831;28;20569;-73
2021/09/06 07:30:45;;;;;;;17.55;11.57;;;17.70;73.90;;;;;;5038324;28;20021;-73
2021/09/06 07:33:11;;;;;;;15.75;10.80;;;17.70;73.70;;;;;;5037952;28;20049;-73
2021/09/06 07:35:37;;;;;;;13.18;9.43;;;17.80;73.50;;;;;;5038118;28;20026;-73
2021/09/06 07:38:03;;;;;;;18.52;10.80;;;17.90;73.10;;;;;;5038334;28;20029;-73
2021/09/06 07:40:29;;;;;;;16.80;10.93;;;17.90;72.90;;;;;;5038194;28;20022;-73
2021/09/06 07:42:55;;;;;;;19.38;11.85;;;18.10;73.50;;;;;;5037964;28;20540;-73
2021/09/06 07:45:21;;;;;;;18.67;12.65;;;18.20;73.70;;;;;;5036925;28;20025;-73
2021/09/06 07:47:47;;;;;;;22.08;14.40;;;18.40;74.10;;;;;;5035883;28;20976;-74
2021/09/06 07:50:14;;;;;;;23.75;14.38;;;18.60;75.10;;;;;;5037200;28;20029;-73
2021/09/06 07:52:40;;;;;;;21.40;14.55;;;18.80;75.60;;;;;;5037938;28;20025;-73
2021/09/06 07:55:07;;;;;;;21.20;12.60;;;19.10;76.50;;;;;;5037828;28;20051;-73
2021/09/06 07:57:33;;;;;;;20.27;13.20;;;19.30;76.90;;;;;;5037592;28;20024;-73
2021/09/06 07:59:59;;;;;;;20.17;12.32;;;19.60;77.80;;;;;;5037884;28;20101;-74
2021/09/06 08:02:25;;;;;;;19.17;12.80;;;19.90;77.60;;;;;;5037799;28;20037;-74
2021/09/06 08:04:51;;;;;;;18.73;13.05;;;20.20;77.80;;;;;;5035942;28;20030;-74
2021/09/06 08:07:17;;;;;;;21.92;14.48;;;20.50;77.40;;;;;;5037321;28;20029;-74
2021/09/06 08:09:43;;;;;;;21.00;12.88;;;20.80;77.20;;;;;;5036108;28;20083;-74
2021/09/06 08:12:09;;;;;;;19.33;12.65;;;21.10;77.00;;;;;;5037194;28;20488;-74
2021/09/06 08:14:35;;;;;;;18.48;12.85;;;21.50;77.10;;;;;;5037450;28;20026;-74
2021/09/06 08:17:01;;;;;;;19.13;11.98;;;21.80;77.10;;;;;;5037424;28;20025;-74
2021/09/06 08:19:29;;;;;;;20.45;12.18;;;22.20;77.00;;;;;;5037217;28;20075;-74
2021/09/06 08:21:56;;;;;;;18.38;13.07;;;22.50;76.90;;;;;;5035227;28;20071;-75
2021/09/06 08:24:23;;;;;;;19.02;12.75;;;23.00;76.80;;;;;;5037326;28;20021;-74
2021/09/06 08:26:50;;;;;;;19.05;13.55;;;23.40;76.20;;;;;;5035750;28;20057;-74
2021/09/06 08:29:17;;;;;;;17.38;11.18;;;23.90;75.80;;;;;;5037470;28;20026;-76
2021/09/06 08:31:43;;;;;;;17.67;10.88;;;24.20;75.50;;;;;;5035642;28;20061;-74
2021/09/06 08:34:09;;;;;;;19.00;11.40;;;24.70;74.80;;;;;;5036777;28;20041;-75
2021/09/06 08:36:35;;;;;;;14.95;10.38;;;25.20;74.00;;;;;;5036991;28;20434;-74
2021/09/06 08:39:01;;;;;;;16.70;10.70;;;25.60;73.40;;;;;;5037143;28;20156;-75
2021/09/06 08:41:27;;;;;;;16.08;10.38;;;26.00;72.80;;;;;;5036629;28;20048;-74
2021/09/06 08:43:53;;;;;;;14.55;10.48;;;26.40;71.70;;;;;;5037286;28;20025;-75
2021/09/06 08:46:23;;;;;;;16.73;10.07;;;26.80;71.50;;;;;;5036738;28;20034;-74
2021/09/06 08:48:49;;;;;;;18.40;11.48;;;27.30;70.80;;;;;;5035932;28;20032;-78
2021/09/06 08:51:16;;;;;;;14.32;10.30;;;27.70;69.90;;;;;;5036836;28;20034;-75
2021/09/06 08:53:42;;;;;;;16.15;9.52;;;28.10;68.70;;;;;;5035447;28;20472;-76
2021/09/06 08:56:08;;;;;;;12.20;8.77;;;28.50;67.90;;;;;;5036377;28;20038;-77
2021/09/06 08:58:34;;;;;;;12.77;9.15;;;28.80;67.40;;;;;;5035639;28;20109;-78
2021/09/06 09:01:00;;;;;;;13.10;8.75;;;29.30;66.60;;;;;;5036878;28;20061;-77
2021/09/06 09:03:26;;;;;;;14.68;9.23;;;29.60;65.30;;;;;;5036789;28;20081;-77
2021/09/06 09:06:00;;;;;;;13.10;9.35;;;30.00;65.30;;;;;;5035556;28;20025;-75
2021/09/06 09:08:26;;;;;;;15.05;9.07;;;30.40;64.80;;;;;;5036792;28;20026;-74
2021/09/06 09:10:58;;;;;;;10.75;8.13;;;30.70;63.90;;;;;;5037278;28;20041;-75
2021/09/06 09:13:29;;;;;;;12.77;8.38;;;31.10;63.30;;;;;;5037322;28;20057;-74
2021/09/06 09:15:55;;;;;;;9.38;7.10;;;31.40;62.80;;;;;;5037045;28;20026;-74
2021/09/06 09:18:33;;;;;;;10.15;6.15;;;31.80;62.20;;;;;;5036196;28;20084;-74
2021/09/06 09:21:00;;;;;;;10.35;6.25;;;32.10;60.70;;;;;;5036591;28;20072;-75
2021/09/06 09:23:48;;;;;;;12.65;6.95;;;32.40;59.80;;;;;;5036612;28;20021;-75
2021/09/06 09:26:15;;;;;;;11.02;6.85;;;32.70;59.80;;;;;;5036359;28;20084;-75
2021/09/06 09:28:44;;;;;;;8.80;6.15;;;33.00;60.20;;;;;;5036795;28;20030;-75
2021/09/06 09:31:17;;;;;;;8.85;6.55;;;33.30;59.30;;;;;;5036625;28;20021;-75
2021/09/06 09:33:48;;;;;;;9.93;6.40;;;33.60;59.10;;;;;;5036589;28;20056;-75
2021/09/06 09:36:32;;;;;;;8.82;5.78;;;33.90;58.60;;;;;;5040235;28;20369;-75
2021/09/06 09:39:15;;;;;;;9.55;6.00;;;34.30;58.50;;;;;;5040663;28;20540;-75
2021/09/06 09:41:43;;;;;;;10.15;6.22;;;34.50;57.20;;;;;;5040366;28;20515;-75
2021/09/06 09:44:20;;;;;;;10.77;6.00;;;34.80;56.50;;;;;;5040149;28;20391;-75
2021/09/06 09:47:00;;;;;;;8.93;5.57;;;35.00;56.30;;;;;;5040570;28;20038;-74
2021/09/06 09:49:33;;;;;;;7.55;5.97;;;35.30;55.60;;;;;;5040073;28;20033;-74
2021/09/06 09:52:00;;;;;;;8.32;5.60;;;35.50;53.90;;;;;;5040022;28;20026;-74
2021/09/06 09:54:26;;;;;;;7.90;6.05;;;35.60;52.60;;;;;;5038994;28;20029;-74
2021/09/06 09:56:52;;;;;;;7.57;5.20;;;35.90;53.70;;;;;;5040469;28;20022;-74
2021/09/06 09:59:18;;;;;;;10.43;6.10;;;36.00;54.10;;;;;;5039647;28;20021;-74
2021/09/06 10:02:00;;;;;;;8.48;5.32;;;36.30;53.90;;;;;;5039089;28;20026;-74
2021/09/06 10:04:30;;;;;;;8.00;5.30;;;36.50;53.80;;;;;;5040371;28;20087;-74
2021/09/06 10:06:57;;;;;;;8.93;5.30;;;36.70;53.80;;;;;;5039464;28;20022;-74
2021/09/06 10:09:23;;;;;;;7.57;5.53;;;36.90;53.70;;;;;;5039654;28;20026;-74
2021/09/06 10:11:50;;;;;;;7.05;4.80;;;37.10;53.10;;;;;;5039896;28;20034;-74
2021/09/06 10:14:25;;;;;;;6.78;4.93;;;37.30;51.60;;;;;;5039864;28;20025;-76
2021/09/06 10:17:07;;;;;;;7.93;5.05;;;37.50;52.30;;;;;;5038840;28;20048;-74
2021/09/06 10:19:42;;;;;;;8.63;5.32;;;37.70;52.10;;;;;;5038741;28;20026;-76
2021/09/06 10:22:20;;;;;;;7.60;5.25;;;37.90;51.30;;;;;;5038674;28;20026;-74
2021/09/06 10:25:01;;;;;;;9.07;4.88;;;38.10;51.30;;;;;;5039461;28;20384;-74
2021/09/06 10:27:28;;;;;;;8.55;4.82;;;38.30;50.70;;;;;;5038645;28;20391;-74
2021/09/06 10:30:08;;;;;;;6.82;4.25;;;38.50;49.30;;;;;;5038391;28;20523;-74
2021/09/06 10:32:35;;;;;;;6.75;3.92;;;38.70;48.70;;;;;;5039796;28;20049;-74
2021/09/06 10:35:07;;;;;;;6.10;4.35;;;38.70;47.80;;;;;;5039182;28;20040;-74
2021/09/06 10:37:35;;;;;;;8.35;4.40;;;38.90;46.80;;;;;;5038077;28;20033;-74
2021/09/06 10:40:07;;;;;;;7.53;4.38;;;38.90;48.10;;;;;;5039397;28;20028;-74
2021/09/06 10:42:34;;;;;;;6.85;4.20;;;39.00;46.80;;;;;;5039084;28;20022;-74
2021/09/06 10:45:02;;;;;;;6.45;4.10;;;39.20;47.70;;;;;;5038642;28;20033;-74
2021/09/06 10:47:38;;;;;;;6.97;4.05;;;39.30;47.30;;;;;;5039231;28;20460;-74
2021/09/06 10:50:16;;;;;;;5.15;3.40;;;39.50;47.10;;;;;;5037771;28;20025;-74
2021/09/06 10:52:46;;;;;;;5.93;3.55;;;39.60;46.40;;;;;;5037793;28;20092;-74
2021/09/06 10:55:13;;;;;;;6.35;3.47;;;39.80;46.40;;;;;;5039195;28;20148;-75
2021/09/06 10:57:40;;;;;;;6.55;3.17;;;39.90;44.80;;;;;;5038869;28;20535;-75
2021/09/06 11:00:12;;;;;;;5.88;3.30;;;39.90;43.20;;;;;;5039377;28;20017;-77
2021/09/06 11:02:38;;;;;;;5.13;3.30;;;40.00;44.80;;;;;;5037258;28;20027;-77
2021/09/06 11:05:06;;;;;;;6.78;3.15;;;40.10;44.20;;;;;;5037999;28;20089;-77
2021/09/06 11:07:32;;;;;;;6.38;3.08;;;40.20;43.80;;;;;;5038999;28;20026;-77
2021/09/06 11:10:22;;;;;;;6.75;3.30;;;40.30;44.30;;;;;;5038906;28;20423;-72
2021/09/06 11:12:58;;;;;;;5.73;3.23;;;40.40;44.20;;;;;;5038890;28;20039;-74
2021/09/06 11:15:29;;;;;;;4.90;3.30;;;40.60;44.30;;;;;;5038401;28;20316;-74
2021/09/06 11:18:05;;;;;;;6.05;3.20;;;40.70;43.90;;;;;;5038946;28;20021;-74
2021/09/06 11:20:36;;;;;;;5.15;2.85;;;40.80;43.00;;;;;;5038379;28;20088;-74
2021/09/06 11:23:04;;;;;;;4.88;3.22;;;40.80;42.40;;;;;;5038479;28;20080;-75
2021/09/06 11:25:32;;;;;;;5.05;3.40;;;40.80;42.50;;;;;;5038272;28;20083;-73
2021/09/06 11:28:08;;;;;;;5.30;3.35;;;40.80;42.60;;;;;;5038222;28;20095;-75
2021/09/06 11:30:36;;;;;;;7.05;3.20;;;40.80;41.60;;;;;;5038597;28;20021;-73
2021/09/06 11:33:05;;;;;;;6.15;3.30;;;40.80;42.10;;;;;;5038100;28;20046;-73
2021/09/06 11:35:33;;;;;;;7.00;2.88;;;40.80;42.80;;;;;;5038018;28;20500;-73
2021/09/06 11:38:00;;;;;;;5.93;3.33;;;40.90;41.00;;;;;;5038166;28;20961;-74
2021/09/06 11:40:26;;;;;;;7.10;3.72;;;40.80;39.80;;;;;;5037079;28;20080;-75
2021/09/06 11:42:52;;;;;;;6.00;3.42;;;40.70;40.00;;;;;;5020715;28;20017;-78
2021/09/06 11:45:21;;;;;;;7.13;3.45;;;40.70;41.00;;;;;;5038353;28;20036;-77
2021/09/06 11:47:47;;;;;;;7.18;3.65;;;40.70;41.80;;;;;;5037881;28;20131;-75
2021/09/06 11:50:15;;;;;;;6.50;3.60;;;40.70;40.10;;;;;;5037004;28;20034;-75
2021/09/06 11:52:42;;;;;;;5.25;3.42;;;40.70;40.50;;;;;;5036331;28;20033;-75
2021/09/06 11:55:19;;;;;;;6.38;3.60;;;40.80;40.70;;;;;;5038118;28;20097;-75
2021/09/06 11:57:45;;;;;;;6.53;3.80;;;40.80;40.70;;;;;;5037667;28;20025;-75
2021/09/06 12:00:15;;;;;;;7.18;3.85;;;40.90;40.50;;;;;;5037582;28;20053;-75
2021/09/06 12:02:52;;;;;;;4.90;3.45;;;40.90;40.00;;;;;;5037595;28;20025;-75
2021/09/06 12:05:18;;;;;;;6.68;3.72;;;40.80;39.80;;;;;;5037411;28;20388;-74
2021/09/06 12:07:56;;;;;;;6.28;3.67;;;40.80;40.60;;;;;;5037772;28;20403;-74
2021/09/06 12:10:33;;;;;;;6.32;3.78;;;40.80;40.60;;;;;;5037193;28;20025;-74
2021/09/06 12:13:04;;;;;;;4.95;3.47;;;40.70;39.30;;;;;;5036552;28;20025;-74
2021/09/06 12:15:54;;;;;;;6.25;3.17;;;40.60;39.80;;;;;;5037522;28;20475;-74
2021/09/06 12:18:20;;;;;;;4.35;3.28;;;40.50;40.50;;;;;;5037364;28;20392;-74
2021/09/06 12:20:46;;;;;;;6.22;3.60;;;40.30;40.20;;;;;;5037344;28;20033;-74
2021/09/06 12:23:26;;;;;;;7.22;3.08;;;40.20;39.00;;;;;;5036083;28;20071;-74
2021/09/06 12:25:52;;;;;;;6.82;4.00;;;40.10;39.00;;;;;;5037228;28;20030;-73
2021/09/06 12:28:18;;;;;;;5.63;3.47;;;40.00;41.00;;;;;;5037342;28;20458;-73
2021/09/06 12:31:04;;;;;;;5.78;3.00;;;40.00;41.20;;;;;;5037462;28;20030;-74
2021/09/06 12:33:31;;;;;;;6.28;3.55;;;40.00;40.80;;;;;;5037056;28;20076;-74